createdAt,value
2018-05-08T00:00:00.545Z,15.11
2018-05-08T00:02:28.828Z,15.03
2018-05-08T00:04:57.089Z,14.83
2018-05-08T00:07:26.220Z,14.87
2018-05-08T00:09:54.489Z,14.72
2018-05-08T00:12:22.737Z,14.53
2018-05-08T00:14:51.832Z,14.68
2018-05-08T00:17:20.957Z,14.72
2018-05-08T00:19:49.220Z,14.67
2018-05-08T00:22:17.497Z,14.67
2018-05-08T00:24:45.744Z,14.59
2018-05-08T00:27:14.753Z,14.50
2018-05-08T00:29:43.056Z,14.51
2018-05-08T00:32:11.312Z,14.43
2018-05-08T00:34:39.592Z,14.27
2018-05-08T00:37:07.862Z,14.20
2018-05-08T00:39:36.117Z,14.08
2018-05-08T00:42:05.143Z,13.94
2018-05-08T00:44:33.431Z,13.78
2018-05-08T00:47:01.679Z,13.73
2018-05-08T00:49:30.697Z,13.68
2018-05-08T00:51:58.965Z,13.54
2018-05-08T00:54:45.024Z,13.44
2018-05-08T00:57:13.291Z,13.17
2018-05-08T00:59:41.561Z,13.09
2018-05-08T01:02:09.816Z,13.03
2018-05-08T01:04:38.080Z,12.95
2018-05-08T01:07:06.334Z,12.94
2018-05-08T01:09:34.589Z,12.98
2018-05-08T01:12:03.613Z,13.04
2018-05-08T01:14:31.864Z,12.94
2018-05-08T01:17:00.907Z,12.89
2018-05-08T01:19:29.166Z,12.72
2018-05-08T01:21:57.421Z,12.78
2018-05-08T01:24:25.666Z,12.65
2018-05-08T01:26:53.959Z,12.57
2018-05-08T01:29:22.964Z,12.36
2018-05-08T01:31:51.226Z,12.22
2018-05-08T01:34:20.261Z,12.07
2018-05-08T01:36:48.597Z,12.07
2018-05-08T01:39:17.626Z,12.13
2018-05-08T01:41:45.901Z,12.04
2018-05-08T01:44:14.150Z,11.75
2018-05-08T01:46:43.181Z,11.90
2018-05-08T01:49:11.450Z,11.68
2018-05-08T01:51:39.697Z,11.85
2018-05-08T01:54:08.713Z,11.82
2018-05-08T01:56:36.976Z,11.77
2018-05-08T01:59:05.265Z,11.71
2018-05-08T02:01:33.520Z,11.63
2018-05-08T02:04:01.798Z,11.63
2018-05-08T02:06:30.044Z,11.57
2018-05-08T02:08:58.315Z,11.41
2018-05-08T02:11:26.584Z,11.28
2018-05-08T02:13:54.835Z,11.19
2018-05-08T02:16:23.094Z,11.08
2018-05-08T02:18:51.356Z,11.16
2018-05-08T02:21:19.615Z,11.25
2018-05-08T02:23:48.648Z,11.17
2018-05-08T02:26:16.925Z,11.21
2018-05-08T02:28:45.176Z,11.08
2018-05-08T02:31:13.426Z,11.13
2018-05-08T02:33:41.699Z,11.02
2018-05-08T02:36:10.018Z,10.92
2018-05-08T02:38:38.292Z,10.78
2018-05-08T02:41:06.672Z,10.87
2018-05-08T02:43:34.924Z,10.83
2018-05-08T02:46:03.956Z,10.75
2018-05-08T02:48:32.225Z,10.55
2018-05-08T02:51:01.245Z,10.71
2018-05-08T02:53:29.509Z,10.61
2018-05-08T02:55:57.774Z,10.45
2018-05-08T02:58:26.036Z,10.49
2018-05-08T03:00:54.292Z,10.42
2018-05-08T03:03:23.329Z,10.35
2018-05-08T03:05:51.594Z,10.45
2018-05-08T03:08:19.829Z,10.30
2018-05-08T03:10:48.862Z,10.28
2018-05-08T03:13:17.117Z,10.43
2018-05-08T03:15:46.132Z,10.43
2018-05-08T03:18:14.413Z,10.37
2018-05-08T03:20:42.656Z,10.30
2018-05-08T03:23:10.951Z,10.30
2018-05-08T03:25:39.218Z,10.22
2018-05-08T03:28:07.470Z,10.09
2018-05-08T03:30:35.721Z,10.04
2018-05-08T03:33:04.000Z,10.13
2018-05-08T03:35:32.255Z,10.05
2018-05-08T03:38:00.498Z,9.90
2018-05-08T03:40:29.517Z,10.04
2018-05-08T03:42:57.760Z,9.94
2018-05-08T03:45:27.671Z,9.95
2018-05-08T03:47:56.698Z,10.08
2018-05-08T03:50:24.986Z,9.87
2018-05-08T03:52:53.296Z,9.97
2018-05-08T03:55:21.621Z,9.87
2018-05-08T03:57:49.927Z,9.93
2018-05-08T04:00:36.017Z,9.96
2018-05-08T04:03:22.164Z,9.99
2018-05-08T04:06:03.498Z,9.98
2018-05-08T04:08:31.740Z,10.09
2018-05-08T04:10:59.992Z,10.03
2018-05-08T04:13:29.015Z,9.94
2018-05-08T04:15:57.266Z,9.98
2018-05-08T04:18:26.274Z,10.00
2018-05-08T04:20:54.523Z,9.90
2018-05-08T04:23:23.537Z,9.89
2018-05-08T04:25:52.638Z,9.80
2018-05-08T04:28:20.918Z,9.72
2018-05-08T04:30:49.161Z,9.75
2018-05-08T04:33:17.482Z,9.80
2018-05-08T04:35:45.764Z,9.92
2018-05-08T04:38:14.017Z,9.89
2018-05-08T04:40:42.332Z,10.08
2018-05-08T04:43:10.673Z,10.29
2018-05-08T04:45:38.933Z,10.15
2018-05-08T04:48:08.046Z,10.34
2018-05-08T04:50:36.320Z,10.32
2018-05-08T04:53:04.605Z,10.44
2018-05-08T04:55:32.850Z,10.56
2018-05-08T04:58:01.892Z,10.70
2018-05-08T05:00:30.153Z,10.84
2018-05-08T05:02:58.408Z,10.87
2018-05-08T05:05:27.524Z,10.89
2018-05-08T05:07:55.808Z,11.09
2018-05-08T05:10:24.047Z,11.24
2018-05-08T05:12:53.070Z,11.35
2018-05-08T05:15:21.336Z,11.48
2018-05-08T05:17:49.586Z,11.63
2018-05-08T05:20:17.838Z,11.72
2018-05-08T05:22:46.098Z,11.79
2018-05-08T05:25:14.351Z,11.90
2018-05-08T05:27:42.600Z,11.73
2018-05-08T05:30:11.625Z,11.70
2018-05-08T05:32:39.935Z,11.79
2018-05-08T05:35:08.915Z,11.99
2018-05-08T05:37:37.181Z,12.22
2018-05-08T05:40:06.687Z,12.32
2018-05-08T05:42:34.975Z,12.48
2018-05-08T05:45:03.353Z,12.66
2018-05-08T05:47:31.610Z,12.88
2018-05-08T05:49:59.861Z,13.08
2018-05-08T05:52:28.969Z,13.27
2018-05-08T05:54:57.216Z,13.45
2018-05-08T05:57:26.249Z,13.59
2018-05-08T05:59:54.501Z,13.67
2018-05-08T06:02:23.617Z,13.75
2018-05-08T06:04:51.895Z,13.90
2018-05-08T06:07:20.138Z,13.98
2018-05-08T06:09:49.173Z,14.04
2018-05-08T06:12:17.437Z,14.11
2018-05-08T06:14:45.694Z,14.26
2018-05-08T06:17:14.803Z,14.36
2018-05-08T06:19:43.059Z,14.43
2018-05-08T06:22:12.157Z,14.56
2018-05-08T06:24:40.371Z,14.69
2018-05-08T06:27:08.633Z,14.85
2018-05-08T06:29:36.889Z,14.95
2018-05-08T06:32:05.150Z,15.15
2018-05-08T06:34:34.269Z,15.30
2018-05-08T06:37:02.541Z,15.42
2018-05-08T06:39:31.630Z,15.58
2018-05-08T06:41:59.918Z,15.70
2018-05-08T06:44:28.188Z,15.59
2018-05-08T06:46:57.297Z,15.84
2018-05-08T06:49:25.568Z,16.01
2018-05-08T06:51:53.825Z,16.23
2018-05-08T06:54:22.833Z,16.26
2018-05-08T06:56:51.121Z,16.56
2018-05-08T06:59:19.391Z,16.79
2018-05-08T07:01:47.667Z,17.04
2018-05-08T07:04:15.988Z,17.19
2018-05-08T07:06:44.240Z,17.43
2018-05-08T07:09:12.573Z,17.67
2018-05-08T07:11:40.752Z,17.87
2018-05-08T07:14:09.771Z,18.14
2018-05-08T07:16:38.051Z,18.41
2018-05-08T07:19:06.297Z,18.45
2018-05-08T07:21:35.318Z,18.57
2018-05-08T07:24:03.652Z,18.81
2018-05-08T07:26:31.833Z,18.93
2018-05-08T07:29:00.092Z,19.01
2018-05-08T07:31:28.385Z,19.17
2018-05-08T07:33:56.622Z,19.30
2018-05-08T07:36:24.898Z,19.51
2018-05-08T07:38:53.166Z,19.70
2018-05-08T07:41:21.421Z,19.84
2018-05-08T07:43:49.671Z,19.93
2018-05-08T07:46:18.805Z,19.78
2018-05-08T07:48:47.066Z,20.05
2018-05-08T07:51:15.318Z,19.95
2018-05-08T07:53:44.349Z,20.24
2018-05-08T07:56:12.602Z,20.36
2018-05-08T07:58:41.614Z,20.47
2018-05-08T08:01:09.889Z,20.61
2018-05-08T08:03:38.163Z,20.65
2018-05-08T08:06:07.180Z,20.69
2018-05-08T08:08:35.458Z,20.81
2018-05-08T08:11:03.807Z,21.10
2018-05-08T08:13:31.969Z,21.33
2018-05-08T08:16:01.006Z,21.49
2018-05-08T08:18:29.354Z,21.55
2018-05-08T08:20:57.536Z,21.64
2018-05-08T08:23:25.806Z,21.69
2018-05-08T08:25:54.057Z,21.89
2018-05-08T08:28:23.069Z,21.74
2018-05-08T08:30:51.354Z,21.83
2018-05-08T08:33:19.620Z,22.04
2018-05-08T08:35:47.885Z,22.09
2018-05-08T08:38:16.937Z,22.29
2018-05-08T08:40:45.189Z,22.46
2018-05-08T08:43:13.436Z,22.52
2018-05-08T08:45:41.709Z,22.71
2018-05-08T08:48:10.731Z,22.74
2018-05-08T08:50:38.980Z,22.73
2018-05-08T08:53:08.013Z,22.88
2018-05-08T08:55:36.268Z,23.11
2018-05-08T08:58:04.517Z,23.14
2018-05-08T09:00:33.582Z,23.18
2018-05-08T09:03:01.841Z,23.23
2018-05-08T09:05:30.089Z,23.35
2018-05-08T09:07:58.353Z,23.50
2018-05-08T09:10:26.601Z,23.53
2018-05-08T09:12:54.862Z,23.69
2018-05-08T09:15:23.152Z,23.79
2018-05-08T09:17:51.397Z,23.74
2018-05-08T09:20:19.661Z,23.74
2018-05-08T09:22:47.910Z,23.72
2018-05-08T09:25:16.162Z,23.88
2018-05-08T09:27:44.457Z,23.87
2018-05-08T09:30:13.465Z,24.17
2018-05-08T09:32:41.721Z,24.16
2018-05-08T09:35:10.756Z,24.29
2018-05-08T09:37:39.016Z,24.17
2018-05-08T09:40:07.373Z,24.46
2018-05-08T09:42:36.406Z,24.67
2018-05-08T09:45:04.650Z,24.88
2018-05-08T09:47:32.910Z,24.92
2018-05-08T09:50:01.965Z,24.80
2018-05-08T09:52:30.217Z,24.75
2018-05-08T09:54:58.486Z,24.81
2018-05-08T09:57:26.740Z,24.91
2018-05-08T09:59:55.016Z,24.99
2018-05-08T10:02:24.049Z,25.06
2018-05-08T10:04:52.301Z,25.12
2018-05-08T10:07:20.557Z,25.09
2018-05-08T10:09:49.580Z,24.93
2018-05-08T10:12:17.847Z,25.19
2018-05-08T10:14:46.117Z,25.33
2018-05-08T10:17:15.129Z,25.36
2018-05-08T10:19:43.406Z,25.39
2018-05-08T10:22:11.649Z,25.23
2018-05-08T10:24:40.658Z,25.19
2018-05-08T10:27:08.942Z,25.38
2018-05-08T10:29:37.229Z,25.55
2018-05-08T10:32:05.481Z,25.57
2018-05-08T10:34:33.778Z,25.34
2018-05-08T10:37:02.045Z,25.67
2018-05-08T10:39:30.285Z,25.77
2018-05-08T10:41:58.541Z,25.94
2018-05-08T10:44:26.897Z,26.01
2018-05-08T10:46:55.929Z,26.24
2018-05-08T10:49:24.168Z,26.39
2018-05-08T10:51:52.444Z,26.29
2018-05-08T10:54:20.701Z,26.40
2018-05-08T10:56:48.997Z,26.32
2018-05-08T10:59:17.258Z,26.31
2018-05-08T11:01:45.570Z,26.55
2018-05-08T11:04:13.796Z,26.52
2018-05-08T11:06:42.054Z,26.41
2018-05-08T11:09:11.179Z,26.65
2018-05-08T11:11:40.168Z,26.81
2018-05-08T11:14:08.418Z,26.82
2018-05-08T11:16:37.441Z,27.11
2018-05-08T11:19:05.705Z,27.38
2018-05-08T11:21:33.955Z,27.36
2018-05-08T11:24:02.974Z,27.09
2018-05-08T11:26:31.353Z,27.17
2018-05-08T11:28:59.554Z,27.24
2018-05-08T11:31:27.810Z,27.10
2018-05-08T11:33:56.092Z,27.36
2018-05-08T11:36:24.344Z,27.29
2018-05-08T11:38:53.354Z,27.45
2018-05-08T11:41:21.656Z,27.46
2018-05-08T11:43:49.897Z,27.16
2018-05-08T11:46:18.155Z,27.50
2018-05-08T11:48:47.185Z,27.57
2018-05-08T11:51:15.449Z,27.63
2018-05-08T11:53:43.694Z,27.70
2018-05-08T11:56:12.731Z,28.01
2018-05-08T11:58:40.979Z,27.99
2018-05-08T12:01:09.998Z,28.03
2018-05-08T12:03:38.268Z,27.99
2018-05-08T12:06:06.528Z,28.37
2018-05-08T12:08:35.549Z,28.51
2018-05-08T12:11:03.813Z,28.69
2018-05-08T12:13:32.067Z,28.80
2018-05-08T12:16:01.078Z,28.67
2018-05-08T12:18:29.344Z,28.70
2018-05-08T12:20:57.609Z,28.54
2018-05-08T12:23:26.689Z,28.90
2018-05-08T12:25:54.957Z,29.07
2018-05-08T12:28:23.208Z,28.94
2018-05-08T12:30:51.453Z,28.90
2018-05-08T12:33:19.722Z,28.97
2018-05-08T12:35:47.998Z,28.80
2018-05-08T12:38:16.252Z,29.29
2018-05-08T12:40:44.542Z,29.22
2018-05-08T12:43:13.644Z,28.95
2018-05-08T12:45:41.826Z,28.75
2018-05-08T12:48:10.086Z,28.69
2018-05-08T12:50:39.126Z,29.04
2018-05-08T12:53:07.374Z,29.61
2018-05-08T12:55:35.644Z,29.96
2018-05-08T12:58:03.901Z,30.09
2018-05-08T13:00:32.920Z,30.23
2018-05-08T13:03:01.188Z,30.14
2018-05-08T13:05:29.443Z,30.25
2018-05-08T13:07:57.690Z,30.08
2018-05-08T13:10:25.961Z,30.46
2018-05-08T13:12:54.265Z,30.70
2018-05-08T13:15:22.509Z,29.96
2018-05-08T13:17:51.539Z,30.27
2018-05-08T13:20:19.799Z,30.51
2018-05-08T13:22:48.076Z,30.73
2018-05-08T13:25:16.405Z,30.86
2018-05-08T13:27:44.655Z,31.10
2018-05-08T13:30:13.681Z,31.53
2018-05-08T13:32:41.966Z,31.14
2018-05-08T13:35:11.158Z,32.44
2018-05-08T13:37:39.417Z,33.74
2018-05-08T13:40:07.686Z,34.35
2018-05-08T13:42:35.936Z,35.07
2018-05-08T13:45:04.186Z,36.24
2018-05-08T13:47:32.478Z,36.88
2018-05-08T13:50:00.720Z,36.21
2018-05-08T13:52:28.983Z,36.91
2018-05-08T13:54:57.320Z,37.77
2018-05-08T13:57:25.512Z,37.76
2018-05-08T13:59:53.768Z,37.79
2018-05-08T14:02:22.033Z,38.77
2018-05-08T14:04:50.370Z,39.36
2018-05-08T14:07:19.188Z,38.99
2018-05-08T14:09:47.452Z,38.86
2018-05-08T14:12:15.708Z,38.27
2018-05-08T14:14:43.986Z,38.33
2018-05-08T14:17:12.258Z,38.75
2018-05-08T14:19:40.510Z,39.33
2018-05-08T14:22:09.558Z,39.81
2018-05-08T14:24:37.831Z,38.77
2018-05-08T14:27:06.091Z,39.03
2018-05-08T14:29:34.341Z,39.73
2018-05-08T14:32:02.637Z,39.46
2018-05-08T14:34:30.878Z,39.03
2018-05-08T14:36:59.952Z,38.88
2018-05-08T14:39:28.179Z,38.81
2018-05-08T14:41:56.435Z,39.75
2018-05-08T14:44:25.461Z,39.32
2018-05-08T14:46:53.727Z,39.65
2018-05-08T14:49:21.985Z,39.17
2018-05-08T14:51:50.281Z,39.00
2018-05-08T14:54:18.556Z,39.61
2018-05-08T14:56:46.818Z,40.01
2018-05-08T14:59:15.073Z,39.55
2018-05-08T15:01:44.100Z,39.77
2018-05-08T15:04:12.440Z,39.24
2018-05-08T15:06:40.621Z,39.39
2018-05-08T15:09:09.649Z,39.50
2018-05-08T15:11:37.916Z,40.29
2018-05-08T15:14:06.207Z,41.09
2018-05-08T15:16:34.485Z,40.97
2018-05-08T15:19:02.734Z,41.00
2018-05-08T15:21:30.989Z,41.30
2018-05-08T15:24:00.030Z,40.92
2018-05-08T15:26:28.305Z,41.26
2018-05-08T15:28:56.768Z,40.67
2018-05-08T15:31:25.026Z,40.35
2018-05-08T15:33:54.047Z,41.12
2018-05-08T15:36:22.302Z,41.00
2018-05-08T15:38:50.581Z,41.12
2018-05-08T15:41:18.874Z,41.78
2018-05-08T15:43:47.121Z,41.49
2018-05-08T15:46:16.147Z,41.12
2018-05-08T15:48:44.397Z,41.15
2018-05-08T15:51:13.417Z,41.00
2018-05-08T15:53:41.685Z,40.63
2018-05-08T15:56:09.937Z,40.17
2018-05-08T15:58:38.977Z,40.77
2018-05-08T16:01:07.246Z,40.84
2018-05-08T16:03:35.519Z,41.49
2018-05-08T16:06:03.789Z,40.73
2018-05-08T16:08:32.934Z,40.31
2018-05-08T16:11:01.192Z,40.30
2018-05-08T16:13:29.444Z,40.70
2018-05-08T16:15:57.714Z,40.01
2018-05-08T16:18:25.964Z,40.22
2018-05-08T16:20:55.030Z,40.12
2018-05-08T16:23:23.257Z,40.33
2018-05-08T16:25:51.513Z,38.86
2018-05-08T16:28:20.525Z,38.82
2018-05-08T16:30:48.784Z,39.10
2018-05-08T16:33:17.070Z,39.81
2018-05-08T16:35:45.320Z,40.31
2018-05-08T16:38:14.350Z,39.58
2018-05-08T16:40:42.601Z,40.07
2018-05-08T16:43:11.621Z,39.91
2018-05-08T16:45:39.892Z,39.91
2018-05-08T16:48:08.163Z,39.86
2018-05-08T16:50:36.410Z,39.67
2018-05-08T16:53:05.444Z,40.07
2018-05-08T16:55:33.712Z,39.56
2018-05-08T16:58:01.952Z,39.60
2018-05-08T17:00:31.027Z,39.59
2018-05-08T17:02:59.279Z,38.79
2018-05-08T17:05:27.532Z,39.35
2018-05-08T17:07:55.846Z,39.51
2018-05-08T17:10:24.233Z,38.45
2018-05-08T17:12:52.491Z,38.99
2018-05-08T17:15:20.762Z,38.12
2018-05-08T17:17:49.049Z,38.90
2018-05-08T17:20:17.267Z,38.56
2018-05-08T17:22:46.303Z,39.15
2018-05-08T17:25:14.560Z,39.36
2018-05-08T17:27:42.812Z,39.22
2018-05-08T17:30:11.848Z,39.01
2018-05-08T17:32:40.102Z,39.05
2018-05-08T17:35:08.357Z,38.78
2018-05-08T17:37:37.394Z,38.87
2018-05-08T17:40:05.694Z,39.18
2018-05-08T17:42:34.036Z,38.54
2018-05-08T17:45:02.365Z,37.96
2018-05-08T17:47:31.448Z,37.73
2018-05-08T17:49:59.791Z,38.01
2018-05-08T17:52:28.063Z,37.98
2018-05-08T17:54:56.317Z,37.91
2018-05-08T17:57:25.340Z,37.61
2018-05-08T17:59:53.603Z,36.75
2018-05-08T18:02:21.864Z,35.76
2018-05-08T18:04:50.881Z,34.42
2018-05-08T18:07:19.158Z,33.36
2018-05-08T18:09:47.433Z,32.11
2018-05-08T18:12:15.712Z,31.29
2018-05-08T18:14:43.993Z,30.06
2018-05-08T18:17:12.258Z,29.45
2018-05-08T18:19:40.528Z,28.59
2018-05-08T18:22:08.799Z,28.11
2018-05-08T18:24:37.131Z,27.66
2018-05-08T18:27:05.382Z,26.83
2018-05-08T18:29:33.705Z,26.63
2018-05-08T18:32:02.791Z,26.38
2018-05-08T18:34:31.088Z,25.98
2018-05-08T18:37:00.514Z,25.76
2018-05-08T18:39:29.298Z,25.48
2018-05-08T18:41:58.208Z,25.27
2018-05-08T18:44:28.096Z,24.98
2018-05-08T18:46:57.138Z,24.77
2018-05-08T18:49:26.552Z,24.47
2018-05-08T18:51:55.857Z,24.30
2018-05-08T18:54:25.100Z,24.00
2018-05-08T18:56:55.261Z,23.90
2018-05-08T18:59:24.508Z,23.64
2018-05-08T19:01:53.898Z,23.31
2018-05-08T19:04:23.928Z,23.28
2018-05-08T19:06:53.154Z,23.05
2018-05-08T19:09:22.638Z,22.97
2018-05-08T19:11:52.635Z,22.81
2018-05-08T19:14:21.973Z,22.71
2018-05-08T19:16:52.133Z,22.61
2018-05-08T19:19:27.666Z,22.49
2018-05-08T19:21:56.929Z,22.38
2018-05-08T19:24:32.346Z,22.20
2018-05-08T19:27:01.627Z,22.08
2018-05-08T19:29:36.292Z,21.96
2018-05-08T19:32:05.559Z,21.79
2018-05-08T19:34:40.455Z,21.68
2018-05-08T19:37:15.093Z,21.55
2018-05-08T19:39:44.486Z,21.38
2018-05-08T19:42:13.775Z,21.16
2018-05-08T19:44:43.032Z,21.07
2018-05-08T19:47:12.466Z,20.94
2018-05-08T19:49:42.516Z,20.93
2018-05-08T19:52:11.852Z,20.72
2018-05-08T19:54:41.122Z,20.59
2018-05-08T19:57:10.561Z,20.57
2018-05-08T19:59:40.016Z,20.48
2018-05-08T20:02:09.399Z,20.65
2018-05-08T20:04:39.531Z,20.61
2018-05-08T20:07:08.921Z,20.71
2018-05-08T20:09:39.877Z,20.65
2018-05-08T20:12:09.279Z,20.70
2018-05-08T20:14:39.606Z,20.79
2018-05-08T20:17:09.009Z,20.78
2018-05-08T20:19:38.257Z,20.72
2018-05-08T20:22:07.598Z,20.65
2018-05-08T20:24:36.896Z,20.57
2018-05-08T20:27:06.167Z,20.37
2018-05-08T20:29:35.521Z,20.35
2018-05-08T20:32:04.771Z,20.34
2018-05-08T20:34:35.068Z,20.31
2018-05-08T20:37:04.885Z,20.18
2018-05-08T20:39:34.144Z,20.05
2018-05-08T20:42:04.195Z,20.08
2018-05-08T20:44:33.546Z,20.00
2018-05-08T20:47:03.665Z,20.01
2018-05-08T20:49:33.730Z,20.01
2018-05-08T20:52:03.121Z,19.84
2018-05-08T20:54:32.470Z,19.66
2018-05-08T20:57:01.639Z,19.58
2018-05-08T20:59:30.970Z,19.60
2018-05-08T21:02:00.897Z,19.70
2018-05-08T21:04:31.002Z,19.72
2018-05-08T21:07:00.194Z,19.71
2018-05-08T21:09:29.347Z,19.50
2018-05-08T21:11:58.308Z,19.21
2018-05-08T21:14:27.232Z,19.11
2018-05-08T21:16:56.011Z,19.13
2018-05-08T21:19:24.336Z,18.94
2018-05-08T21:21:53.379Z,18.98
2018-05-08T21:24:21.636Z,19.03
2018-05-08T21:26:49.893Z,19.12
2018-05-08T21:29:23.781Z,19.13
2018-05-08T21:31:52.812Z,18.94
2018-05-08T21:34:21.065Z,19.09
2018-05-08T21:36:50.078Z,19.05
2018-05-08T21:39:18.433Z,19.11
2018-05-08T21:41:47.453Z,19.03
2018-05-08T21:44:15.706Z,19.04
2018-05-08T21:46:43.970Z,19.04
2018-05-08T21:49:12.982Z,19.09
2018-05-08T21:51:41.238Z,19.15
2018-05-08T21:54:10.265Z,19.14
2018-05-08T21:56:38.513Z,19.14
2018-05-08T21:59:07.537Z,19.24
2018-05-08T22:01:35.797Z,19.22
2018-05-08T22:04:04.052Z,19.23
2018-05-08T22:06:33.067Z,19.23
2018-05-08T22:09:01.347Z,19.18
2018-05-08T22:11:29.626Z,19.18
2018-05-08T22:13:57.905Z,19.12
2018-05-08T22:16:26.173Z,19.09
2018-05-08T22:18:54.429Z,19.12
2018-05-08T22:21:23.450Z,18.98
2018-05-08T22:23:51.729Z,18.83
2018-05-08T22:26:20.070Z,18.69
2018-05-08T22:28:48.373Z,18.39
2018-05-08T22:31:16.661Z,18.48
2018-05-08T22:33:44.907Z,18.26
2018-05-08T22:36:13.934Z,18.24
2018-05-08T22:38:42.213Z,18.29
2018-05-08T22:41:10.478Z,18.34
2018-05-08T22:43:38.721Z,18.35
2018-05-08T22:46:07.749Z,18.39
2018-05-08T22:48:36.003Z,18.43
2018-05-08T22:51:05.021Z,18.41
2018-05-08T22:53:33.293Z,18.39
2018-05-08T22:56:01.556Z,18.38
2018-05-08T22:58:29.805Z,18.32
2018-05-08T23:00:58.118Z,18.23
2018-05-08T23:03:26.471Z,18.11
2018-05-08T23:05:54.789Z,18.07
2018-05-08T23:08:23.154Z,18.06
2018-05-08T23:10:51.484Z,17.98
2018-05-08T23:13:19.812Z,17.85
2018-05-08T23:15:48.133Z,17.69
2018-05-08T23:18:16.434Z,17.50
2018-05-08T23:20:45.534Z,17.36
2018-05-08T23:23:14.627Z,17.29
2018-05-08T23:25:42.948Z,17.24
2018-05-08T23:28:11.283Z,17.15
2018-05-08T23:30:40.326Z,17.00
2018-05-08T23:33:08.582Z,16.98
2018-05-08T23:35:36.825Z,17.01
2018-05-08T23:38:05.865Z,16.93
2018-05-08T23:40:34.124Z,16.89
2018-05-08T23:43:02.368Z,16.83
2018-05-08T23:45:31.414Z,16.76
2018-05-08T23:47:59.680Z,16.67
2018-05-08T23:50:27.965Z,16.66
2018-05-08T23:52:56.240Z,16.57
2018-05-08T23:55:24.553Z,16.53
2018-05-08T23:57:52.810Z,16.38
